Time;durP1;ratioP1;P1;durP2;ratioP2;P2;SDS_P1;SDS_P2;PMS_P1;PMS_P2;Temp;Humidity;BMP_temperature;BMP_pressure;BME280_temperature;BME280_humidity;BME280_pressure;Samples;Min_cycle;Max_cycle;Signal;HPM_P1;HPM_P2
2022/01/15 00:01:10;;;;;;;;;;;;;;;7.83;53.98;100768.50;4384343;32;19998;-72
2022/01/15 00:03:37;;;;;;;;;;;;;;;7.78;54.18;100769.97;4384895;32;19986;-72
2022/01/15 00:06:03;;;;;;;;;;;;;;;7.90;53.79;100765.34;4384619;32;19975;-71
2022/01/15 00:08:30;;;;;;;;;;;;;;;8.02;53.43;100759.81;4386246;32;20021;-73
2022/01/15 00:10:57;;;;;;;;;;;;;;;7.72;54.14;100759.41;4391404;32;20320;-73
2022/01/15 00:13:28;;;;;;;;;;;;;;;7.81;54.15;100780.44;4384982;32;20037;-71
2022/01/15 00:16:10;;;;;;;;;;;;;;;7.82;54.02;100777.06;4383780;32;19994;-71
2022/01/15 00:18:47;;;;;;;;;;;;;;;7.90;53.78;100778.22;4378593;32;20004;-72
2022/01/15 00:21:14;;;;;;;;;;;;;;;7.83;54.22;100775.34;4398793;32;20031;-74
2022/01/15 00:23:43;;;;;;;;;;;;;;;7.78;54.28;100775.13;4391368;32;19986;-72
2022/01/15 00:26:10;;;;;;;;;;;;;;;7.54;54.97;100775.00;4400125;32;19989;-72
2022/01/15 00:28:36;;;;;;;;;;;;;;;7.58;54.86;100787.19;4396686;32;20357;-72
2022/01/15 00:31:03;;;;;;;;;;;;;;;7.60;54.92;100795.00;4393073;32;19993;-72
2022/01/15 00:33:30;;;;;;;;;;;;;;;7.38;55.37;100788.91;4384608;32;19991;-71
2022/01/15 00:35:57;;;;;;;;;;;;;;;7.45;55.18;100793.50;4384992;32;19983;-72
2022/01/15 00:38:24;;;;;;;;;;;;;;;7.29;55.87;100796.22;4388382;32;20335;-72
2022/01/15 00:40:51;;;;;;;;;;;;;;;7.72;54.71;100795.50;4389612;32;20045;-71
2022/01/15 00:43:18;;;;;;;;;;;;;;;7.54;54.96;100789.56;4385909;32;20414;-73
2022/01/15 00:45:46;;;;;;;;;;;;;;;7.39;55.70;100794.91;4392200;32;19983;-72
2022/01/15 00:48:13;;;;;;;;;;;;;;;7.53;55.19;100792.94;4386743;32;20028;-71
2022/01/15 00:50:40;;;;;;;;;;;;;;;7.41;55.62;100799.34;4375187;32;20153;-73
2022/01/15 00:53:07;;;;;;;;;;;;;;;7.36;55.82;100803.37;4385034;32;20001;-72
2022/01/15 00:55:34;;;;;;;;;;;;;;;7.39;55.78;100811.25;4386610;32;19994;-73
2022/01/15 00:58:00;;;;;;;;;;;;;;;7.56;55.32;100816.25;4392001;32;20028;-71
2022/01/15 01:00:27;;;;;;;;;;;;;;;7.71;54.93;100808.31;4384881;32;20486;-71
2022/01/15 01:02:56;;;;;;;;;;;;;;;7.61;55.11;100812.22;4371765;32;19978;-72
2022/01/15 01:05:23;;;;;;;;;;;;;;;7.42;55.63;100821.69;4372924;32;20069;-75
2022/01/15 01:07:50;;;;;;;;;;;;;;;7.43;55.59;100822.56;4383979;32;20020;-71
2022/01/15 01:23:49;;;;;;;;;;;;;;;7.71;54.77;100845.28;4384986;32;20001;-72
2022/01/15 01:26:54;;;;;;;;;;;;;;;7.75;54.39;100841.13;4385417;32;19986;-72
2022/01/15 01:29:38;;;;;;;;;;;;;;;7.56;55.09;100847.19;4385165;32;20327;-72
2022/01/15 01:32:07;;;;;;;;;;;;;;;7.71;54.38;100844.41;4393131;32;19998;-72
2022/01/15 01:34:37;;;;;;;;;;;;;;;7.64;54.87;100853.56;4385306;32;20002;-74
2022/01/15 01:40:14;;;;;;;;;;;;;;;7.65;54.82;100855.31;4389424;32;19979;-72
2022/01/15 01:44:59;;;;;;;;;;;;;;;7.38;55.45;100845.56;4391973;32;19997;-71
2022/01/15 01:47:39;;;;;;;;;;;;;;;7.08;56.73;100829.56;4386303;32;20065;-71
2022/01/15 01:50:08;;;;;;;;;;;;;;;7.10;56.59;100827.09;4378147;32;20005;-71
2022/01/15 01:52:35;;;;;;;;;;;;;;;7.56;55.24;100824.00;4383874;32;20332;-71
2022/01/15 01:55:02;;;;;;;;;;;;;;;7.38;55.67;100818.94;4384917;32;20482;-71
2022/01/15 01:57:29;;;;;;;;;;;;;;;7.33;55.71;100808.41;4389188;32;20017;-76
2022/01/15 01:59:56;;;;;;;;;;;;;;;7.45;55.70;100805.50;4389180;32;19979;-72
2022/01/15 02:02:22;;;;;;;;;;;;;;;7.09;56.38;100821.06;4384274;32;20323;-71
2022/01/15 02:04:50;;;;;;;;;;;;;;;7.32;55.88;100824.69;4384985;32;19991;-71
2022/01/15 02:07:16;;;;;;;;;;;;;;;7.30;55.96;100821.13;4371275;32;20029;-72
2022/01/15 02:09:43;;;;;;;;;;;;;;;7.48;55.25;100822.78;4371094;32;19987;-72
2022/01/15 02:12:10;;;;;;;;;;;;;;;7.24;55.99;100815.72;4393215;32;19987;-72
2022/01/15 02:14:37;;;;;;;;;;;;;;;7.32;55.89;100824.69;4384800;32;20037;-72
2022/01/15 02:17:04;;;;;;;;;;;;;;;7.50;55.23;100828.88;4387777;32;20034;-72
2022/01/15 02:19:32;;;;;;;;;;;;;;;7.51;55.03;100831.53;4394002;32;20001;-72
2022/01/15 02:24:44;;;;;;;;;;;;;;;7.23;55.44;100826.84;4384432;32;20002;-72
2022/01/15 02:27:10;;;;;;;;;;;;;;;7.44;55.15;100825.22;4384713;32;19991;-75
2022/01/15 02:29:37;;;;;;;;;;;;;;;7.49;54.69;100832.28;4387500;32;19978;-72
2022/01/15 02:32:04;;;;;;;;;;;;;;;7.53;54.65;100821.28;4382461;32;19982;-71
2022/01/15 02:34:31;;;;;;;;;;;;;;;7.57;54.40;100825.78;4394367;32;20470;-72
2022/01/15 02:36:58;;;;;;;;;;;;;;;7.36;54.53;100831.72;4384907;32;20039;-74
2022/01/15 02:39:25;;;;;;;;;;;;;;;7.67;54.00;100835.66;4384896;32;20229;-72
2022/01/15 02:41:51;;;;;;;;;;;;;;;7.72;53.45;100829.00;4384781;32;19998;-72
2022/01/15 02:44:19;;;;;;;;;;;;;;;7.72;53.73;100831.56;4384362;32;20002;-72
2022/01/15 02:49:17;;;;;;;;;;;;;;;7.76;53.44;100823.19;4390787;32;20029;-72
2022/01/15 02:51:43;;;;;;;;;;;;;;;7.60;53.97;100825.91;4384448;32;20008;-72
2022/01/15 02:54:10;;;;;;;;;;;;;;;7.68;53.43;100824.53;4384919;32;20016;-72
2022/01/15 02:56:38;;;;;;;;;;;;;;;7.77;53.18;100824.94;4385166;32;20008;-73
2022/01/15 02:59:06;;;;;;;;;;;;;;;7.65;53.29;100819.25;4394198;32;20013;-72
2022/01/15 03:01:33;;;;;;;;;;;;;;;7.62;53.47;100819.09;4385829;32;20032;-73
2022/01/15 03:04:00;;;;;;;;;;;;;;;7.80;52.67;100819.03;4391402;32;19990;-72
2022/01/15 03:06:27;;;;;;;;;;;;;;;7.73;52.91;100815.31;4389335;32;20039;-72
2022/01/15 03:08:54;;;;;;;;;;;;;;;7.57;53.38;100806.03;4392758;32;19990;-71
2022/01/15 03:11:21;;;;;;;;;;;;;;;7.54;53.51;100810.19;4388245;32;20018;-72
2022/01/15 03:13:48;;;;;;;;;;;;;;;7.58;53.03;100801.75;4386705;32;20333;-71
2022/01/15 03:16:16;;;;;;;;;;;;;;;7.44;53.49;100796.91;4394595;32;19986;-72
2022/01/15 03:18:44;;;;;;;;;;;;;;;7.48;53.48;100799.59;4374441;32;19991;-72
2022/01/15 03:21:10;;;;;;;;;;;;;;;7.48;53.33;100794.44;4393416;32;19990;-72
2022/01/15 03:23:38;;;;;;;;;;;;;;;7.50;53.43;100792.81;4386031;32;19990;-76
2022/01/15 03:26:05;;;;;;;;;;;;;;;7.41;53.58;100799.34;4372570;32;19986;-71
2022/01/15 03:28:32;;;;;;;;;;;;;;;7.43;53.48;100800.28;4387883;32;20029;-72
2022/01/15 03:30:59;;;;;;;;;;;;;;;7.50;53.12;100803.09;4385508;32;20415;-72
2022/01/15 03:33:26;;;;;;;;;;;;;;;7.44;53.12;100809.78;4386403;32;19994;-73
2022/01/15 03:35:53;;;;;;;;;;;;;;;7.48;53.07;100815.06;4386204;32;20001;-72
2022/01/15 03:38:20;;;;;;;;;;;;;;;7.34;53.08;100807.59;4394343;32;19992;-72
2022/01/15 03:40:47;;;;;;;;;;;;;;;7.25;53.17;100817.50;4385735;32;20041;-73
2022/01/15 03:43:13;;;;;;;;;;;;;;;7.43;53.32;100817.41;4385101;32;20013;-72
2022/01/15 03:45:43;;;;;;;;;;;;;;;7.42;53.35;100813.97;4393201;32;19978;-74
2022/01/15 03:48:11;;;;;;;;;;;;;;;7.42;53.42;100819.13;4384158;32;19982;-72
2022/01/15 03:50:37;;;;;;;;;;;;;;;7.54;52.85;100815.34;4386213;32;19994;-72
2022/01/15 03:53:04;;;;;;;;;;;;;;;7.41;53.09;100825.09;4385682;32;20808;-72
2022/01/15 03:55:31;;;;;;;;;;;;;;;7.34;53.44;100827.31;4384635;32;20081;-73
2022/01/15 03:58:00;;;;;;;;;;;;;;;7.46;52.85;100823.59;4389394;32;19986;-71
2022/01/15 04:00:27;;;;;;;;;;;;;;;7.55;52.39;100829.97;4390210;32;20001;-72
2022/01/15 04:02:55;;;;;;;;;;;;;;;7.42;52.54;100841.41;4385409;32;20001;-71
2022/01/15 04:05:23;;;;;;;;;;;;;;;7.42;52.64;100850.03;4385602;32;20040;-72
2022/01/15 04:07:50;;;;;;;;;;;;;;;7.42;52.65;100857.75;4378389;32;20001;-72
2022/01/15 04:10:17;;;;;;;;;;;;;;;7.35;52.54;100860.87;4385278;32;20028;-72
2022/01/15 04:12:44;;;;;;;;;;;;;;;7.07;53.47;100863.00;4373831;32;19994;-72
2022/01/15 04:15:13;;;;;;;;;;;;;;;7.16;53.53;100863.41;4378908;32;20323;-72
2022/01/15 04:17:41;;;;;;;;;;;;;;;6.91;53.58;100861.38;4373992;32;19982;-72
2022/01/15 04:20:08;;;;;;;;;;;;;;;6.76;54.19;100871.81;4392298;32;20040;-72
2022/01/15 04:22:35;;;;;;;;;;;;;;;7.08;52.62;100872.47;4385745;32;20061;-75
2022/01/15 04:25:03;;;;;;;;;;;;;;;7.10;51.90;100868.28;4385839;32;19978;-72
2022/01/15 04:27:29;;;;;;;;;;;;;;;6.88;53.19;100867.28;4385663;32;19962;-71
2022/01/15 04:30:01;;;;;;;;;;;;;;;6.84;53.33;100880.81;4389652;32;19995;-72
2022/01/15 04:32:28;;;;;;;;;;;;;;;6.23;55.23;100877.81;4388691;32;20020;-73
2022/01/15 04:34:54;;;;;;;;;;;;;;;6.28;54.58;100873.78;4372504;32;20041;-72
2022/01/15 04:37:23;;;;;;;;;;;;;;;6.32;55.23;100880.84;4385552;32;20835;-72
2022/01/15 04:39:51;;;;;;;;;;;;;;;6.33;55.36;100889.44;4393981;32;19990;-73
2022/01/15 04:42:21;;;;;;;;;;;;;;;6.68;54.14;100880.87;4386081;32;20061;-71
2022/01/15 04:44:48;;;;;;;;;;;;;;;6.58;53.65;100876.09;4394051;32;20005;-72
2022/01/15 04:47:15;;;;;;;;;;;;;;;6.77;52.89;100873.63;4385634;32;19975;-72
2022/01/15 04:49:42;;;;;;;;;;;;;;;6.59;53.36;100893.31;4387452;32;20033;-72
2022/01/15 04:52:09;;;;;;;;;;;;;;;6.67;53.09;100886.84;4392438;32;20036;-72
2022/01/15 04:54:36;;;;;;;;;;;;;;;6.73;52.89;100887.13;4386176;32;20046;-72
2022/01/15 04:57:04;;;;;;;;;;;;;;;6.69;54.00;100890.34;4385442;32;19978;-72
2022/01/15 04:59:31;;;;;;;;;;;;;;;6.68;54.51;100889.47;4387497;32;19978;-72
2022/01/15 05:01:58;;;;;;;;;;;;;;;6.73;54.07;100887.13;4391604;32;19986;-72
2022/01/15 05:04:24;;;;;;;;;;;;;;;6.68;54.61;100884.34;4389152;32;19997;-75
2022/01/15 05:06:51;;;;;;;;;;;;;;;6.73;54.96;100892.25;4389913;32;20036;-72
2022/01/15 05:09:19;;;;;;;;;;;;;;;6.95;54.34;100879.59;4383524;32;19975;-72
2022/01/15 05:11:59;;;;;;;;;;;;;;;6.89;54.52;100887.06;4393526;32;20001;-72
2022/01/15 05:14:26;;;;;;;;;;;;;;;6.98;54.33;100884.91;4385361;32;19983;-71
2022/01/15 05:16:53;;;;;;;;;;;;;;;6.96;54.61;100883.97;4385377;32;20355;-72
2022/01/15 05:19:19;;;;;;;;;;;;;;;7.07;54.60;100888.72;4385217;32;20583;-72
2022/01/15 05:21:46;;;;;;;;;;;;;;;6.91;55.02;100893.16;4385362;32;20016;-72
2022/01/15 05:24:16;;;;;;;;;;;;;;;7.09;54.56;100892.28;4385762;32;20344;-72
2022/01/15 05:26:42;;;;;;;;;;;;;;;7.02;54.70;100887.63;4393654;32;20029;-72
2022/01/15 05:29:10;;;;;;;;;;;;;;;6.90;55.07;100878.53;4387117;32;20041;-75
2022/01/15 05:31:37;;;;;;;;;;;;;;;7.08;54.65;100885.34;4391593;32;20012;-71
2022/01/15 05:34:04;;;;;;;;;;;;;;;7.08;54.70;100881.06;4372416;32;19978;-72
2022/01/15 05:36:31;;;;;;;;;;;;;;;6.98;54.80;100884.03;4378050;32;19978;-72
2022/01/15 05:38:58;;;;;;;;;;;;;;;6.86;55.16;100879.19;4384897;32;19997;-71
2022/01/15 05:41:25;;;;;;;;;;;;;;;6.70;55.42;100881.81;4387009;32;20042;-72
2022/01/15 05:43:52;;;;;;;;;;;;;;;6.81;55.33;100885.81;4385183;32;20004;-72
2022/01/15 05:46:18;;;;;;;;;;;;;;;6.82;55.42;100892.72;4383907;32;19986;-77
2022/01/15 05:48:45;;;;;;;;;;;;;;;6.78;55.41;100901.09;4353369;32;20071;-72
2022/01/15 05:51:12;;;;;;;;;;;;;;;6.80;55.37;100904.63;4355060;32;20045;-72
2022/01/15 05:53:39;;;;;;;;;;;;;;;6.86;55.16;100910.09;4354816;32;20021;-71
2022/01/15 05:56:06;;;;;;;;;;;;;;;6.57;55.85;100915.47;4367376;32;20559;-73
2022/01/15 05:58:33;;;;;;;;;;;;;;;6.85;55.12;100910.00;4372918;32;20010;-72
2022/01/15 06:00:59;;;;;;;;;;;;;;;6.92;54.64;100923.25;4375428;32;20030;-72
2022/01/15 06:03:27;;;;;;;;;;;;;;;6.68;55.20;100924.63;4369674;32;20639;-72
2022/01/15 06:05:53;;;;;;;;;;;;;;;6.94;54.46;100913.88;4369790;32;19989;-73
2022/01/15 06:08:20;;;;;;;;;;;;;;;7.10;54.07;100922.34;4385443;32;19979;-72
2022/01/15 06:10:47;;;;;;;;;;;;;;;6.91;54.44;100923.16;4376044;32;20005;-71
2022/01/15 06:13:14;;;;;;;;;;;;;;;6.88;54.47;100929.03;4370160;32;19994;-73
2022/01/15 06:15:40;;;;;;;;;;;;;;;6.93;54.37;100931.84;4370426;32;20021;-72
2022/01/15 06:18:07;;;;;;;;;;;;;;;7.03;54.08;100930.59;4371325;32;20044;-72
2022/01/15 06:20:34;;;;;;;;;;;;;;;7.05;53.98;100941.84;4376502;32;20042;-72
2022/01/15 06:23:01;;;;;;;;;;;;;;;7.14;53.71;100932.84;4381314;32;20411;-71
2022/01/15 06:25:28;;;;;;;;;;;;;;;7.12;53.58;100943.91;4369875;32;20026;-74
2022/01/15 06:27:55;;;;;;;;;;;;;;;7.17;53.11;100942.41;4372249;32;19987;-73
2022/01/15 06:30:21;;;;;;;;;;;;;;;7.14;53.04;100938.00;4378886;32;20002;-73
2022/01/15 06:32:49;;;;;;;;;;;;;;;6.97;53.79;100942.34;4380184;32;19982;-77
2022/01/15 06:35:17;;;;;;;;;;;;;;;7.13;53.38;100940.50;4381591;32;19978;-73
2022/01/15 06:37:47;;;;;;;;;;;;;;;7.23;53.24;100942.72;4384148;32;20051;-74
2022/01/15 06:40:15;;;;;;;;;;;;;;;7.13;53.46;100953.38;4384035;32;20364;-73
2022/01/15 06:42:42;;;;;;;;;;;;;;;7.19;53.32;100945.97;4381985;32;19994;-74
2022/01/15 06:45:09;;;;;;;;;;;;;;;7.27;53.09;100944.63;4384634;32;19994;-75
2022/01/15 06:47:36;;;;;;;;;;;;;;;7.05;53.71;100946.97;4384173;32;19987;-74
2022/01/15 06:50:04;;;;;;;;;;;;;;;7.05;53.63;100952.13;4378577;32;19986;-75
2022/01/15 06:52:35;;;;;;;;;;;;;;;7.27;53.04;100954.91;4370054;32;20024;-74
2022/01/15 06:55:05;;;;;;;;;;;;;;;7.40;52.87;100951.22;4370295;32;19979;-75
2022/01/15 06:57:32;;;;;;;;;;;;;;;7.39;52.98;100960.66;4384169;32;20719;-74
2022/01/15 06:59:59;;;;;;;;;;;;;;;7.65;52.23;100958.41;4383965;32;20006;-75
2022/01/15 07:02:26;;;;;;;;;;;;;;;7.59;52.31;100960.69;4381577;32;20050;-77
2022/01/15 07:04:53;;;;;;;;;;;;;;;7.74;51.99;100963.97;4379306;32;19983;-74
2022/01/15 07:07:20;;;;;;;;;;;;;;;7.86;51.60;100959.37;4374311;32;20008;-74
2022/01/15 07:09:47;;;;;;;;;;;;;;;7.95;51.42;100953.75;4373593;32;20031;-78
2022/01/15 07:12:13;;;;;;;;;;;;;;;8.06;50.99;100964.53;4400480;32;19987;-75
2022/01/15 07:14:40;;;;;;;;;;;;;;;8.36;50.35;100970.16;4394002;32;20012;-75
2022/01/15 07:17:10;;;;;;;;;;;;;;;8.53;49.50;100963.16;4393257;32;20039;-74
2022/01/15 07:19:37;;;;;;;;;;;;;;;8.64;49.51;100967.06;4395798;32;20332;-74
2022/01/15 07:22:04;;;;;;;;;;;;;;;8.84;48.95;100966.22;4395773;32;20732;-74
2022/01/15 07:24:31;;;;;;;;;;;;;;;8.94;48.36;100974.34;4390672;32;19989;-73
2022/01/15 07:26:58;;;;;;;;;;;;;;;8.69;48.70;100973.31;4383523;32;20008;-72
2022/01/15 07:29:25;;;;;;;;;;;;;;;8.75;48.88;100978.72;4393397;32;20012;-73
2022/01/15 07:31:53;;;;;;;;;;;;;;;8.77;48.58;100977.06;4373280;32;19999;-72
2022/01/15 07:34:20;;;;;;;;;;;;;;;8.57;49.04;100972.78;4381484;32;19971;-73
2022/01/15 07:36:50;;;;;;;;;;;;;;;8.52;49.15;100974.28;4398683;32;20061;-73
2022/01/15 07:39:17;;;;;;;;;;;;;;;8.56;49.10;100971.91;4393258;32;20368;-74
2022/01/15 07:41:44;;;;;;;;;;;;;;;8.42;49.59;100977.28;4380100;32;20031;-76
2022/01/15 07:44:11;;;;;;;;;;;;;;;8.36;49.69;100977.91;4376116;32;20142;-71
2022/01/15 07:46:38;;;;;;;;;;;;;;;8.34;49.80;100985.56;4389894;32;19986;-78
2022/01/15 07:49:05;;;;;;;;;;;;;;;8.01;50.64;100984.06;4404647;32;19990;-76
2022/01/15 07:51:32;;;;;;;;;;;;;;;8.05;50.47;100991.12;4398962;32;20394;-71
2022/01/15 07:53:59;;;;;;;;;;;;;;;8.19;50.24;100995.19;4394268;32;19982;-73
2022/01/15 07:56:26;;;;;;;;;;;;;;;8.28;49.98;100999.87;4388850;32;20036;-72
2022/01/15 07:58:52;;;;;;;;;;;;;;;8.11;50.51;101001.72;4400798;32;20048;-73
2022/01/15 08:01:19;;;;;;;;;;;;;;;8.47;49.23;101012.81;4392873;32;19982;-72
2022/01/15 08:03:48;;;;;;;;;;;;;;;8.45;49.24;101003.22;4384327;32;19970;-74
2022/01/15 08:06:15;;;;;;;;;;;;;;;8.47;49.25;101011.94;4397579;32;20021;-73
2022/01/15 08:08:42;;;;;;;;;;;;;;;8.46;49.14;101005.00;4399796;32;20659;-72
2022/01/15 08:11:09;;;;;;;;;;;;;;;8.82;48.32;101010.84;4400115;32;20205;-72
2022/01/15 08:13:36;;;;;;;;;;;;;;;8.77;48.31;101013.22;4399835;32;20043;-72
2022/01/15 08:16:07;;;;;;;;;;;;;;;9.13;47.40;101018.16;4386797;32;20009;-72
2022/01/15 08:18:34;;;;;;;;;;;;;;;9.19;47.54;101018.41;4379049;32;19978;-72
2022/01/15 08:21:03;;;;;;;;;;;;;;;9.47;46.97;101014.34;4390216;32;19982;-71
2022/01/15 08:23:30;;;;;;;;;;;;;;;9.71;45.37;101010.13;4396903;32;19986;-72
2022/01/15 08:25:58;;;;;;;;;;;;;;;9.99;45.77;101021.53;4384186;32;20009;-72
2022/01/15 08:28:25;;;;;;;;;;;;;;;10.22;44.48;101018.06;4401003;32;20064;-75
2022/01/15 08:30:52;;;;;;;;;;;;;;;9.99;44.79;101021.53;4399187;32;20116;-72
2022/01/15 08:33:19;;;;;;;;;;;;;;;10.35;44.37;101016.84;4398142;32;20040;-71
2022/01/15 08:35:46;;;;;;;;;;;;;;;10.56;43.62;101021.91;4399377;32;20029;-71
2022/01/15 08:38:13;;;;;;;;;;;;;;;10.45;44.29;101021.50;4400789;32;19989;-72
2022/01/15 08:40:40;;;;;;;;;;;;;;;10.79;42.54;101019.22;4389027;32;19974;-71
2022/01/15 08:43:07;;;;;;;;;;;;;;;10.53;42.90;101026.97;4405731;32;20366;-73
2022/01/15 08:45:35;;;;;;;;;;;;;;;10.38;43.54;101021.25;4411177;32;20745;-72
2022/01/15 08:48:02;;;;;;;;;;;;;;;10.66;43.24;101017.94;4386104;32;20000;-73
2022/01/15 08:50:29;;;;;;;;;;;;;;;10.18;44.20;101023.97;4400056;32;19987;-72
2022/01/15 08:52:56;;;;;;;;;;;;;;;10.53;43.33;101021.78;4395411;32;20025;-71
2022/01/15 08:55:28;;;;;;;;;;;;;;;10.78;42.43;101027.81;4390466;32;20389;-72
2022/01/15 08:57:55;;;;;;;;;;;;;;;10.69;43.17;101008.56;4396365;32;19986;-73
2022/01/15 09:00:22;;;;;;;;;;;;;;;10.82;42.86;101019.34;4385984;32;20006;-72
2022/01/15 09:02:49;;;;;;;;;;;;;;;10.93;42.87;101012.78;4397955;32;22284;-74
2022/01/15 09:05:17;;;;;;;;;;;;;;;10.49;43.00;101014.72;4386499;32;20002;-74
2022/01/15 09:07:44;;;;;;;;;;;;;;;10.56;42.19;101021.91;4384508;32;19994;-75
2022/01/15 09:10:10;;;;;;;;;;;;;;;10.87;41.38;101013.44;4396925;32;20447;-74
2022/01/15 09:12:39;;;;;;;;;;;;;;;10.60;42.10;101013.41;4399513;32;19970;-72
2022/01/15 09:15:27;;;;;;;;;;;;;;;10.47;43.31;101016.41;4400238;32;20071;-74
2022/01/15 09:17:54;;;;;;;;;;;;;;;10.79;42.33;101008.88;4396126;32;19974;-74
2022/01/15 09:20:21;;;;;;;;;;;;;;;10.84;42.92;101009.87;4397178;32;19998;-72
2022/01/15 09:22:48;;;;;;;;;;;;;;;10.84;42.14;101018.53;4395424;32;19990;-73
2022/01/15 09:25:15;;;;;;;;;;;;;;;10.81;40.93;101007.19;4386221;32;19991;-73
2022/01/15 09:30:27;;;;;;;;;;;;;;;10.55;41.70;100999.41;4389006;32;20000;-73
2022/01/15 09:32:54;;;;;;;;;;;;;;;10.36;41.89;101002.19;4392921;32;20029;-72
2022/01/15 09:35:22;;;;;;;;;;;;;;;10.52;41.17;100999.31;4384736;32;20800;-77
2022/01/15 09:37:49;;;;;;;;;;;;;;;10.31;41.81;101003.75;4398258;32;19990;-73
2022/01/15 09:40:17;;;;;;;;;;;;;;;10.08;42.22;101006.31;4400765;32;19990;-71
2022/01/15 09:42:44;;;;;;;;;;;;;;;10.20;41.30;100999.00;4394853;32;20406;-72
2022/01/15 09:45:11;;;;;;;;;;;;;;;10.05;41.80;100990.72;4388288;32;20036;-72
2022/01/15 09:47:38;;;;;;;;;;;;;;;10.52;41.22;100994.13;4377234;32;20115;-72
2022/01/15 09:50:06;;;;;;;;;;;;;;;10.49;41.02;101001.78;4368846;32;20772;-72
2022/01/15 09:52:33;;;;;;;;;;;;;;;10.40;41.17;100993.69;4370170;32;20042;-72
2022/01/15 09:55:01;;;;;;;;;;;;;;;10.15;40.99;100990.22;4356744;32;19995;-72
2022/01/15 09:57:28;;;;;;;;;;;;;;;9.91;41.10;100991.88;4367729;32;20394;-73
2022/01/15 09:59:55;;;;;;;;;;;;;;;9.89;41.63;100994.44;4370309;32;20077;-72
2022/01/15 10:02:22;;;;;;;;;;;;;;;10.13;41.04;100978.91;4359767;32;19998;-72
2022/01/15 10:04:50;;;;;;;;;;;;;;;9.86;41.69;100983.97;4380492;32;20038;-72
2022/01/15 10:07:19;;;;;;;;;;;;;;;9.93;40.78;100985.09;4366875;32;19991;-72
2022/01/15 10:09:48;;;;;;;;;;;;;;;9.72;41.30;100985.16;4370826;32;19983;-72
2022/01/15 10:12:23;;;;;;;;;;;;;;;10.24;39.74;100982.78;4373911;32;20009;-71
2022/01/15 10:14:50;;;;;;;;;;;;;;;9.76;40.54;100980.16;4357675;32;20329;-72
2022/01/15 10:17:20;;;;;;;;;;;;;;;9.85;39.95;100986.50;4368812;32;20050;-75
2022/01/15 10:19:47;;;;;;;;;;;;;;;9.79;40.38;100966.44;4368225;32;20025;-73
2022/01/15 10:22:18;;;;;;;;;;;;;;;9.24;41.86;100972.97;4355785;32;19987;-73
2022/01/15 10:24:51;;;;;;;;;;;;;;;9.36;41.10;100982.03;4372922;32;19987;-72
2022/01/15 10:27:20;;;;;;;;;;;;;;;9.68;40.51;100978.97;4374558;32;20018;-71
2022/01/15 10:29:49;;;;;;;;;;;;;;;10.19;39.42;100973.97;4373330;32;20353;-71
2022/01/15 10:32:15;;;;;;;;;;;;;;;10.24;39.21;100969.84;4379884;32;20377;-80
2022/01/15 10:34:42;;;;;;;;;;;;;;;10.07;40.04;100980.41;4368933;32;20041;-72
2022/01/15 10:37:12;;;;;;;;;;;;;;;10.24;39.58;100968.94;4376690;32;19990;-78
2022/01/15 10:39:59;;;;;;;;;;;;;;;10.57;37.61;100968.41;4360512;32;20029;-71
2022/01/15 10:42:26;;;;;;;;;;;;;;;10.53;38.02;100964.84;4369893;32;20037;-71
2022/01/15 10:44:54;;;;;;;;;;;;;;;10.38;38.42;100959.13;4355668;32;20010;-75
2022/01/15 10:47:22;;;;;;;;;;;;;;;10.13;38.87;100971.16;4378122;32;20034;-72
2022/01/15 10:49:49;;;;;;;;;;;;;;;10.33;37.67;100961.53;4370423;32;20322;-74
2022/01/15 10:52:21;;;;;;;;;;;;;;;10.16;37.57;100965.22;4371047;32;20013;-73
2022/01/15 10:54:49;;;;;;;;;;;;;;;10.04;38.19;100968.22;4393157;32;19987;-74
2022/01/15 10:57:18;;;;;;;;;;;;;;;10.23;37.78;100949.06;4371167;32;20877;-73
2022/01/15 11:00:14;;;;;;;;;;;;;;;10.29;38.18;100953.62;4392777;32;20477;-73
2022/01/15 11:02:46;;;;;;;;;;;;;;;10.42;37.01;100945.47;4369119;32;20517;-72
2022/01/15 11:05:26;;;;;;;;;;;;;;;10.12;38.04;100951.28;4392363;32;19990;-74
2022/01/15 11:07:54;;;;;;;;;;;;;;;10.43;37.41;100947.22;4370695;32;20043;-72
2022/01/15 11:10:21;;;;;;;;;;;;;;;10.59;36.98;100946.03;4370263;32;19986;-72
2022/01/15 11:12:47;;;;;;;;;;;;;;;10.46;37.30;100947.31;4385525;32;20025;-72
2022/01/15 11:15:14;;;;;;;;;;;;;;;10.67;37.27;100937.69;4391157;32;19995;-74
2022/01/15 11:17:42;;;;;;;;;;;;;;;10.68;37.39;100939.44;4371056;32;20010;-72
2022/01/15 11:20:09;;;;;;;;;;;;;;;10.72;37.75;100935.28;4372736;32;20018;-72
2022/01/15 11:22:40;;;;;;;;;;;;;;;10.63;37.01;100930.66;4372330;32;19986;-72
2022/01/15 11:25:07;;;;;;;;;;;;;;;10.81;36.82;100926.91;4386267;32;19987;-79
2022/01/15 11:27:34;;;;;;;;;;;;;;;10.90;36.27;100930.66;4377638;32;19991;-73
2022/01/15 11:30:01;;;;;;;;;;;;;;;10.74;36.81;100932.72;4401592;32;19989;-73
2022/01/15 11:32:28;;;;;;;;;;;;;;;10.66;37.20;100935.94;4388380;32;20056;-73
2022/01/15 11:35:02;;;;;;;;;;;;;;;10.50;37.45;100927.59;4390346;32;20006;-73
2022/01/15 11:37:38;;;;;;;;;;;;;;;10.38;38.66;100925.47;4372348;32;19990;-77
2022/01/15 11:40:40;;;;;;;;;;;;;;;10.47;38.52;100938.75;4370800;32;19990;-76
2022/01/15 11:43:26;;;;;;;;;;;;;;;10.33;39.10;100934.78;4348462;32;20341;-72
2022/01/15 11:45:53;;;;;;;;;;;;;;;10.55;38.78;100931.22;4383516;32;20001;-73
2022/01/15 11:48:22;;;;;;;;;;;;;;;10.91;37.96;100937.63;4386450;32;20085;-73
2022/01/15 11:51:07;;;;;;;;;;;;;;;10.50;39.07;100941.44;4394829;32;20040;-73
2022/01/15 11:53:54;;;;;;;;;;;;;;;10.62;38.64;100936.66;4386307;32;19978;-72
2022/01/15 11:56:22;;;;;;;;;;;;;;;10.67;38.80;100936.81;4389980;32;19999;-73
2022/01/15 11:58:49;;;;;;;;;;;;;;;10.35;39.26;100927.97;4384422;32;20355;-78
2022/01/15 12:01:34;;;;;;;;;;;;;;;10.50;38.67;100927.59;4385529;32;19978;-74
2022/01/15 12:04:20;;;;;;;;;;;;;;;10.41;39.47;100928.19;4386007;32;20006;-74
2022/01/15 12:07:02;;;;;;;;;;;;;;;10.91;37.71;100929.84;4386130;32;19986;-71
2022/01/15 12:09:32;;;;;;;;;;;;;;;10.75;38.88;100924.09;4386167;32;20088;-71
2022/01/15 12:12:00;;;;;;;;;;;;;;;10.65;39.23;100918.63;4386808;32;19990;-71
2022/01/15 12:14:45;;;;;;;;;;;;;;;10.29;41.15;100914.81;4393975;32;19979;-71
2022/01/15 12:17:31;;;;;;;;;;;;;;;10.77;39.67;100906.91;4386199;32;20010;-71
2022/01/15 12:19:59;;;;;;;;;;;;;;;10.65;40.13;100912.56;4391264;32;19987;-71
2022/01/15 12:22:39;;;;;;;;;;;;;;;10.78;39.34;100911.25;4401396;32;20031;-71
2022/01/15 12:25:07;;;;;;;;;;;;;;;10.69;40.09;100914.44;4396023;32;20000;-71
2022/01/15 12:27:34;;;;;;;;;;;;;;;11.13;38.86;100908.06;4387388;32;20021;-77
2022/01/15 12:30:05;;;;;;;;;;;;;;;10.76;39.36;100923.28;4389558;32;20047;-77
2022/01/15 12:32:32;;;;;;;;;;;;;;;10.51;40.44;100914.72;4385315;32;19983;-78
2022/01/15 12:35:00;;;;;;;;;;;;;;;10.63;39.65;100914.25;4385987;32;19987;-71
2022/01/15 12:37:26;;;;;;;;;;;;;;;10.53;39.78;100913.06;4390803;32;19994;-71
2022/01/15 12:39:53;;;;;;;;;;;;;;;10.32;39.78;100912.31;4389027;32;19994;-72
2022/01/15 12:42:27;;;;;;;;;;;;;;;10.84;37.79;100898.50;4373435;32;20220;-71
2022/01/15 12:44:54;;;;;;;;;;;;;;;11.16;37.14;100902.97;4392406;32;19986;-73
2022/01/15 12:47:22;;;;;;;;;;;;;;;10.87;37.17;100891.72;4372674;32;19982;-71
2022/01/15 12:49:50;;;;;;;;;;;;;;;10.78;37.73;100882.78;4392133;32;20045;-72
2022/01/15 12:52:21;;;;;;;;;;;;;;;10.62;38.08;100886.56;4386066;32;20001;-71
2022/01/15 12:54:49;;;;;;;;;;;;;;;10.34;38.44;100879.59;4387617;32;19987;-71
2022/01/15 12:57:39;;;;;;;;;;;;;;;10.13;39.67;100875.44;4392641;32;19983;-71
2022/01/15 13:00:07;;;;;;;;;;;;;;;9.86;40.59;100874.44;4379667;32;20332;-71
2022/01/15 13:02:33;;;;;;;;;;;;;;;10.06;40.13;100873.47;4393234;32;19994;-71
2022/01/15 13:05:00;;;;;;;;;;;;;;;10.18;39.13;100873.91;4371566;32;20041;-71
2022/01/15 13:07:27;;;;;;;;;;;;;;;9.88;38.80;100871.09;4386158;32;20081;-71
2022/01/15 13:09:54;;;;;;;;;;;;;;;9.73;39.01;100866.28;4376326;32;20045;-78
2022/01/15 13:12:21;;;;;;;;;;;;;;;9.89;38.88;100864.22;4385785;32;19990;-71
2022/01/15 13:14:48;;;;;;;;;;;;;;;10.10;38.21;100870.16;4385698;32;19982;-71
2022/01/15 13:17:22;;;;;;;;;;;;;;;10.08;38.33;100871.78;4391935;32;20410;-73